Latest Weather Observations for Mount Crawford

IDS60901

Issued at 9:21 pm CST Wednesday 26 April 2017 (issued every 10 minutes, with the page automatically refreshed every 10 minutes)

About weather observations | Map of Adelaide area stations | Latest observations for Adelaide area | Other Formats
Station Details ID: 023878 Name: MOUNT CRAWFORD AWS Lat: -34.73 Lon: 138.93 Height: 525.0 m
Data from the previous 72 hours. | See also: Recent months at Mount Crawford
Date/Time
CST
Temp
°C
App
Temp
°C
Dew
Point
°C
Rel
Hum
%
Delta-T
°C
Wind Press
QNH
hPa
Press
MSL
hPa
Rain since
9am
mm
Dir  Spd
km/h
Gust
km/h
Spd
kts
Gust
kts
26/09:00pm 7.5 2.5 4.6 82 1.3 SSW 20 26 11 14 1024.2 1023.3 0.2
26/08:30pm 7.2 2.3 4.9 85 1.0 SSW 20 26 11 14 1024.0 1023.1 0.2
26/08:00pm 7.2 2.4 4.7 84 1.1 SSW 19 28 10 15 1023.9 1023.0 0.2
26/07:30pm 7.5 2.5 4.6 82 1.3 SSW 20 26 11 14 1023.7 1022.8 0.2
26/07:00pm 7.8 3.1 5.3 84 1.2 SSW 19 26 10 14 1023.5 1022.6 0.2
26/06:30pm 7.7 3.7 5.0 83 1.2 SSW 15 22 8 12 1023.0 1022.1 0.2
26/06:00pm 7.8 3.4 4.7 81 1.4 SSW 17 26 9 14 1022.7 1021.8 0.2
26/05:30pm 7.9 3.5 5.0 82 1.3 SSW 17 24 9 13 1022.2 1021.3 0.2
26/05:00pm 7.8 2.6 5.4 85 1.1 SSW 22 35 12 19 1022.4 1021.5 0.2
26/04:30pm 7.6 1.9 6.9 95 0.3 SSW 26 39 14 21 1022.2 1021.3 0.2
26/04:00pm 8.7 4.0 6.2 84 1.2 SW 20 30 11 16 1021.8 1020.9 0.2
26/03:30pm 8.2 3.7 7.0 92 0.6 SSW 20 28 11 15 1021.7 1020.8 0.2
26/03:00pm 9.4 3.5 5.8 78 1.7 SSW 26 37 14 20 1021.5 1020.5 0.2
26/02:30pm 9.8 4.3 7.4 85 1.2 S 26 43 14 23 1021.2 1020.2 0.2
26/02:00pm 11.0 6.7 7.7 80 1.6 SW 20 30 11 16 1020.9 1020.0 0.2
26/01:30pm 8.4 3.7 7.8 96 0.3 SSW 22 33 12 18 1020.7 1019.8 0.2
26/01:00pm 9.8 5.6 7.6 86 1.1 SSW 19 32 10 17 1020.5 1019.6 0.2
26/12:41pm 7.9 1.8 6.5 91 0.7 SSW 28 46 15 25 1020.7 1019.8 0.0
26/12:30pm 8.7 3.4 6.7 87 1.0 SSW 24 44 13 24 1020.6 1019.7 0.0
26/12:02pm 8.5 2.3 6.1 85 1.1 SSW 28 50 15 27 1020.6 1019.7 0.0
26/12:00pm 9.4 3.9 5.8 78 1.7 SSW 24 37 13 20 1020.5 1019.6 0.0
26/11:30am 9.3 3.1 6.2 81 1.5 SSW 28 44 15 24 1020.7 1019.8 0.0
26/11:00am 9.0 2.4 6.1 82 1.4 S 30 44 16 24 1020.5 1019.6 0.0
26/10:30am 8.6 2.2 5.4 80 1.5 SW 28 44 15 24 1019.8 1018.8 0.0
26/10:05am 8.7 2.4 5.6 81 1.4 SSW 28 48 15 26 1019.9 1018.9 0.0
26/10:00am 8.8 3.3 5.9 82 1.4 SSW 24 35 13 19 1020.0 1019.1 0.0
26/09:39am 7.3 0.9 5.1 86 1.0 SW 28 46 15 25 1019.7 1018.7 0.0
26/09:30am 8.2 1.7 4.6 78 1.6 SW 28 44 15 24 1019.5 1018.5 0.0
26/09:10am 8.3 1.7 4.3 76 1.8 SW 28 46 15 25 1019.3 1018.3 0.0
26/09:00am 8.0 2.6 4.6 79 1.5 SW 22 33 12 18 1019.3 1018.3 6.0
26/08:30am 7.3 2.3 4.8 84 1.1 SW 20 32 11 17 1018.8 1017.9 6.0
26/08:00am 6.4 1.9 4.2 86 1.0 WSW 17 26 9 14 1018.2 1017.2 6.0
26/07:30am 6.0 0.4 3.7 85 1.0 SW 22 43 12 23 1017.4 1016.4 6.0
26/07:00am 5.5 0.5 3.7 88 0.8 SW 19 30 10 16 1016.8 1015.9 6.0
26/06:30am 5.5 -0.1 3.5 87 0.9 SW 22 33 12 18 1016.4 1015.4 6.0
26/06:00am 5.8 -0.2 3.1 83 1.2 SW 24 37 13 20 1015.9 1014.9 6.0
26/05:30am 5.9 0.0 3.7 86 1.0 SW 24 41 13 22 1015.4 1014.4 6.0
26/05:00am 6.3 -0.3 4.3 87 0.9 SW 28 46 15 25 1014.8 1013.8 6.0
26/04:42am 6.4 -0.1 4.9 90 0.7 SW 28 46 15 25 1014.5 1013.5 6.0
26/04:30am 6.4 0.9 5.8 96 0.3 SW 24 37 13 20 1014.4 1013.4 6.0
26/04:00am 6.6 0.5 6.5 99 0.0 SW 28 56 15 30 1013.8 1012.8 6.0
26/03:30am 6.7 0.2 6.6 99 0.0 SW 30 59 16 32 1013.4 1012.4 5.8
26/03:25am 6.8 0.7 6.8 100 0.0 SW 28 59 15 32 1013.4 1012.4 5.8
26/03:00am 7.3 2.5 7.3 100 0.0 WSW 22 39 12 21 1013.5 1012.5 5.2
26/02:30am 7.8 1.6 7.7 99 0.0 WSW 30 50 16 27 1013.1 1012.0 4.8
26/02:00am 8.3 1.6 7.2 93 0.5 WSW 32 52 17 28 1012.7 1011.7 4.4
26/01:39am 8.7 2.4 7.6 93 0.5 WSW 30 50 16 27 1012.4 1011.4 4.4
26/01:30am 8.8 3.4 8.0 95 0.4 WSW 26 39 14 21 1012.5 1011.5 4.4
26/01:10am 8.6 3.0 8.6 100 0.0 WSW 28 48 15 26 1012.2 1011.2 4.4
26/01:00am 8.6 3.0 8.6 100 0.0 WSW 28 41 15 22 1012.2 1011.2 4.4
26/12:33am 9.0 3.5 9.0 100 0.0 WSW 28 46 15 25 1012.0 1011.0 4.2
26/12:30am 8.9 3.0 8.9 100 0.0 WSW 30 46 16 25 1011.9 1010.9 4.2
26/12:06am 9.7 3.6 9.7 100 0.0 WSW 32 52 17 28 1011.6 1010.5 4.0
26/12:00am 9.7 3.6 9.7 100 0.0 WSW 32 48 17 26 1011.5 1010.4 4.0
 
Date/Time
CST
Temp
°C
App
Temp
°C
Dew
Point
°C
Rel
Hum
%
Delta-T
°C
Wind Press
QNH
hPa
Press
MSL
hPa
Rain since
9am
mm
Dir  Spd
km/h
Gust
km/h
Spd
kts
Gust
kts
25/11:30pm 10.3 3.4 10.3 100 0.0 W 37 57 20 31 1011.2 1010.1 3.6
25/11:23pm 10.5 3.3 10.5 100 0.0 W 39 57 21 31 1010.9 1009.9 2.4
25/11:00pm 11.1 4.4 11.1 100 0.0 W 37 54 20 29 1011.1 1010.0 1.6
25/10:31pm 11.4 5.4 10.9 97 0.3 W 33 52 18 28 1011.4 1010.3 1.0
25/10:30pm 11.4 5.1 10.9 97 0.3 W 35 52 19 28 1011.4 1010.3 1.0
25/10:00pm 11.1 5.0 10.6 97 0.3 W 33 52 18 28 1011.7 1010.7 1.0
25/09:57pm 11.1 5.0 10.5 96 0.3 W 33 52 18 28 1011.7 1010.7 1.0
25/09:30pm 10.6 5.7 9.8 95 0.4 W 26 44 14 24 1012.0 1011.0 1.0
25/09:00pm 10.3 5.7 9.8 97 0.3 W 24 32 13 17 1012.2 1011.2 1.0
25/08:30pm 10.4 5.2 10.1 98 0.2 W 28 43 15 23 1012.1 1011.1 1.0
25/08:09pm 10.5 4.6 10.3 99 0.1 W 32 50 17 27 1012.3 1011.3 1.0
25/08:00pm 10.2 4.0 10.2 100 0.0 W 33 50 18 27 1012.2 1011.2 1.0
25/07:56pm 10.4 4.5 10.4 100 0.0 W 32 50 17 27 1012.3 1011.3 1.0
25/07:30pm 11.0 6.4 11.0 100 0.0 W 26 41 14 22 1012.3 1011.3 1.0
25/07:00pm 10.6 6.3 10.6 100 0.0 W 24 33 13 18 1012.2 1011.2 1.0
25/06:30pm 10.4 7.3 10.4 100 0.0 W 17 28 9 15 1012.2 1011.2 1.0
25/06:00pm 10.6 5.1 10.6 100 0.0 WSW 30 50 16 27 1012.0 1011.0 0.8
25/05:43pm 11.1 5.8 11.1 100 0.0 W 30 48 16 26 1011.8 1010.8 0.4
25/05:30pm 11.4 5.6 11.4 100 0.0 W 33 48 18 26 1011.7 1010.7 0.4
25/05:04pm 12.3 7.7 12.3 100 0.0 WSW 28 57 15 31 1011.7 1010.7 0.4
25/05:00pm 12.3 8.8 12.3 100 0.0 WSW 22 57 12 31 1011.5 1010.4 0.4
25/04:30pm 12.8 7.7 11.9 94 0.5 W 30 43 16 23 1011.6 1010.5 0.2
25/04:12pm 14.3 8.3 10.1 76 2.2 W 32 50 17 27 1011.5 1010.4 0.0
25/04:00pm 14.5 8.3 9.9 74 2.5 W 33 44 18 24 1011.5 1010.4 0.0
25/03:30pm 14.7 9.0 9.9 73 2.6 W 30 44 16 24 1011.5 1010.4 0.0
25/03:08pm 14.8 9.0 9.6 71 2.8 W 30 48 16 26 1011.5 1010.4 0.0
25/03:00pm 14.8 8.5 9.0 68 3.0 W 32 48 17 26 1011.6 1010.5 0.0
25/02:30pm 14.4 9.3 10.6 78 2.1 W 28 41 15 22 1011.5 1010.4 0.0
25/02:00pm 15.1 10.4 10.5 74 2.5 W 26 37 14 20 1011.8 1010.8 0.0
25/01:30pm 15.7 10.0 11.1 74 2.5 W 32 46 17 25 1012.1 1011.1 0.0
25/01:14pm 15.2 10.6 12.2 82 1.7 W 28 46 15 25 1012.3 1011.3 0.0
25/01:00pm 15.3 10.3 12.2 82 1.7 W 30 43 16 23 1012.4 1011.4 0.0
25/12:30pm 14.9 11.9 12.4 85 1.4 WSW 20 33 11 18 1012.7 1011.7 0.0
25/12:00pm 14.6 11.1 13.3 92 0.7 W 24 37 13 20 1012.8 1011.8 0.0
25/11:30am 14.2 11.3 14.0 99 0.1 WSW 22 35 12 19 1013.3 1012.2 0.0
25/11:00am 14.6 11.3 14.1 97 0.3 WSW 24 39 13 21 1013.5 1012.5 0.0
25/10:30am 15.0 12.5 14.0 94 0.6 WSW 20 32 11 17 1013.8 1012.8 0.0
25/10:00am 14.4 12.0 14.4 100 0.0 WSW 20 35 11 19 1014.1 1013.1 0.0
25/09:30am 13.2 10.0 13.2 100 0.0 W 22 39 12 21 1014.0 1013.0 0.0
25/09:00am 12.7 - - - - W 19 30 10 16 1014.0 1013.0 4.6
25/08:30am 12.4 - - - - W 19 30 10 16 1014.1 1013.1 4.6
25/08:00am 12.4 - - - - WSW 22 33 12 18 1013.6 1012.6 4.6
25/07:30am 12.7 - - - - W 28 39 15 21 1012.9 1011.9 4.6
25/07:00am 12.6 - - - - W 32 54 17 29 1012.4 1011.4 4.6
25/06:55am 12.6 6.8 12.6 100 0.0 W 35 54 19 29 1012.2 1011.2 4.6
25/06:30am 12.6 7.3 12.6 100 0.0 W 32 46 17 25 1012.1 1011.1 4.4
25/06:23am 12.5 8.0 12.5 100 0.0 W 28 46 15 25 1012.1 1011.1 4.4
25/06:00am 12.4 7.1 12.4 100 0.0 W 32 48 17 26 1011.8 1010.8 4.4
25/05:55am 12.3 6.9 12.3 100 0.0 W 32 50 17 27 1011.9 1010.9 4.4
25/05:30am 12.1 6.1 12.1 100 0.0 W 35 50 19 27 1011.7 1010.7 4.4
25/05:00am 12.3 6.4 12.3 100 0.0 W 35 56 19 30 1011.6 1010.5 4.4
25/04:49am 12.2 6.2 12.2 100 0.0 W 35 57 19 31 1011.4 1010.3 4.4
25/04:30am 12.0 6.0 12.0 100 0.0 W 35 46 19 25 1011.6 1010.5 4.4
25/04:00am 11.9 6.2 11.9 100 0.0 W 33 48 18 26 1011.7 1010.7 4.4
25/03:30am 11.9 6.4 11.9 100 0.0 W 32 44 17 24 1011.7 1010.7 4.4
25/03:00am 12.1 7.8 12.1 100 0.0 W 26 39 14 21 1011.8 1010.8 4.4
25/02:30am 12.2 8.3 12.2 100 0.0 W 24 32 13 17 1012.0 1011.0 4.4
25/02:00am 12.3 9.2 12.3 100 0.0 W 20 30 11 16 1012.1 1011.1 4.4
25/01:30am 12.8 9.1 12.8 100 0.0 W 24 35 13 19 1012.1 1011.1 4.4
25/01:00am 13.5 9.7 13.5 100 0.0 W 26 37 14 20 1012.0 1011.0 4.2
25/12:30am 13.6 9.8 13.6 100 0.0 W 26 37 14 20 1012.2 1011.2 4.2
25/12:00am 13.5 9.3 13.5 100 0.0 W 28 41 15 22 1012.3 1011.3 4.2
 
Date/Time
CST
Temp
°C
App
Temp
°C
Dew
Point
°C
Rel
Hum
%
Delta-T
°C
Wind Press
QNH
hPa
Press
MSL
hPa
Rain since
9am
mm
Dir  Spd
km/h
Gust
km/h
Spd
kts
Gust
kts
24/11:30pm 13.8 10.1 13.8 100 0.0 WNW 26 33 14 18 1012.5 1011.5 4.2
24/11:00pm 14.0 10.7 14.0 100 0.0 WNW 24 33 13 18 1012.9 1011.9 4.2
24/10:30pm 14.1 10.8 14.1 100 0.0 WNW 24 32 13 17 1013.2 1012.1 4.2
24/10:00pm 13.9 11.3 13.9 100 0.0 WNW 20 28 11 15 1013.6 1012.6 4.0
24/09:30pm 13.7 11.6 13.7 100 0.0 WNW 17 24 9 13 1013.9 1012.9 4.0
24/09:00pm 13.7 11.3 13.7 100 0.0 WNW 19 24 10 13 1013.8 1012.8 4.0
24/08:30pm 13.8 11.8 13.8 100 0.0 WNW 17 22 9 12 1013.9 1012.9 4.0
24/08:00pm 13.8 10.8 13.8 100 0.0 W 22 30 12 16 1014.1 1013.1 4.0
24/07:30pm 14.0 11.1 14.0 100 0.0 W 22 32 12 17 1014.1 1013.1 2.0
24/07:00pm 14.2 11.7 14.2 100 0.0 WNW 20 26 11 14 1014.1 1013.1 1.0
24/06:30pm 14.2 11.4 14.2 100 0.0 WNW 22 30 12 16 1013.9 1012.9 1.0
24/06:00pm 14.3 11.5 14.3 100 0.0 W 22 33 12 18 1013.8 1012.8 0.4
24/05:30pm 14.3 12.1 14.3 100 0.0 WNW 19 28 10 15 1013.7 1012.7 0.4
24/05:00pm 14.2 11.7 14.2 100 0.0 WNW 20 28 11 15 1013.8 1012.8 0.4
24/04:30pm 14.8 12.6 14.8 100 0.0 WNW 20 26 11 14 1013.9 1012.9 0.4
24/04:00pm 15.2 13.1 15.2 100 0.0 WNW 20 28 11 15 1014.1 1013.1 0.4
24/03:30pm 15.5 13.7 15.5 100 0.0 NW 19 30 10 16 1014.2 1013.2 0.2
24/03:00pm 15.7 13.4 15.7 100 0.0 WNW 22 32 12 17 1014.2 1013.2 0.2
24/02:30pm 15.7 14.4 15.7 100 0.0 NW 17 26 9 14 1014.1 1013.1 0.2
24/02:00pm 15.9 14.3 15.9 100 0.0 WNW 19 28 10 15 1014.4 1013.4 0.2
24/01:30pm 16.3 15.2 16.3 100 0.0 NNW 17 24 9 13 1014.6 1013.6 0.2
24/01:00pm 15.9 14.3 15.9 100 0.0 WNW 19 24 10 13 1015.3 1014.3 0.2
24/12:30pm 15.7 14.4 15.7 100 0.0 WNW 17 22 9 12 1015.8 1014.8 0.2
24/12:00pm 15.6 13.8 15.6 100 0.0 NW 19 26 10 14 1016.5 1015.5 0.2
24/11:30am 16.0 14.2 16.0 100 0.0 NNW 20 32 11 17 1016.9 1016.0 0.2
24/11:00am 16.0 15.5 16.0 100 0.0 N 13 19 7 10 1017.2 1016.2 0.2
24/10:30am 15.5 14.5 15.5 100 0.0 N 15 20 8 11 1017.4 1016.4 0.2
24/10:00am 15.6 15.0 15.6 100 0.0 NNW 13 17 7 9 1017.8 1016.8 0.2
24/09:30am 15.6 14.9 15.4 99 0.1 N 13 19 7 10 1018.0 1017.0 0.0
24/09:00am 16.1 14.6 15.3 95 0.5 NNW 17 22 9 12 1018.3 1017.4 5.2
24/08:30am 15.9 15.7 15.7 99 0.1 N 11 17 6 9 1018.2 1017.2 5.0
24/08:00am 14.7 14.1 14.7 100 0.0 ENE 11 15 6 8 1018.1 1017.1 5.0
24/07:30am 14.1 12.9 14.1 100 0.0 ENE 13 17 7 9 1018.0 1017.0 5.0
24/07:00am 13.7 12.8 13.7 100 0.0 ENE 11 17 6 9 1018.0 1017.0 5.0
24/06:30am 13.4 11.6 13.4 100 0.0 E 15 19 8 10 1017.8 1016.8 5.0
24/06:00am 13.5 11.8 13.5 100 0.0 E 15 19 8 10 1018.0 1017.0 5.0
24/05:30am 13.4 11.6 13.4 100 0.0 E 15 19 8 10 1018.2 1017.2 5.0
24/05:00am 13.4 11.2 13.4 100 0.0 E 17 24 9 13 1018.2 1017.2 5.0
24/04:30am 13.2 10.4 13.2 100 0.0 E 20 28 11 15 1018.1 1017.1 5.0
24/04:00am 13.1 9.9 13.1 100 0.0 E 22 26 12 14 1018.2 1017.2 5.0
24/03:30am 13.1 9.9 13.1 100 0.0 E 22 30 12 16 1018.3 1017.4 5.0
24/03:00am 13.0 9.4 13.0 100 0.0 ESE 24 28 13 15 1018.8 1017.9 5.0
24/02:30am 13.1 10.5 13.1 100 0.0 E 19 24 10 13 1019.4 1018.4 3.4
24/02:00am 13.3 10.7 13.3 100 0.0 ESE 19 22 10 12 1019.7 1018.7 2.8
24/01:30am 13.5 10.4 13.5 100 0.0 ESE 22 26 12 14 1019.9 1018.9 2.2
24/01:00am 13.8 11.1 13.6 99 0.1 ESE 20 24 11 13 1020.3 1019.4 1.2
24/12:30am 14.5 11.4 13.4 93 0.6 E 22 30 12 16 1020.3 1019.4 0.6
24/12:00am 15.5 12.7 13.2 86 1.3 E 20 26 11 14 1020.3 1019.4 0.0
 
Date/Time
CST
Temp
°C
App
Temp
°C
Dew
Point
°C
Rel
Hum
%
Delta-T
°C
Wind Press
QNH
hPa
Press
MSL
hPa
Rain since
9am
mm
Dir  Spd
km/h
Gust
km/h
Spd
kts
Gust
kts
23/11:30pm 15.5 13.0 13.5 88 1.1 ESE 19 24 10 13 1020.7 1019.8 0.0
23/11:00pm 15.6 12.9 13.4 87 1.3 ESE 20 26 11 14 1020.8 1019.9 0.0
23/10:30pm 15.7 13.0 13.4 86 1.3 ESE 20 26 11 14 1021.0 1020.1 0.0
23/10:00pm 15.9 13.2 13.4 85 1.4 ESE 20 26 11 14 1021.3 1020.3 0.0
23/09:30pm 16.2 13.3 12.9 81 1.9 ESE 20 26 11 14 1021.5 1020.5 0.0

Latest Capital City Observations: Canberra | Sydney | Melbourne | Brisbane | Adelaide | Perth | Hobart | Darwin

Other Formats:

Comma delimited format used in spreadsheet applications
http://www.bom.gov.au/fwo/IDS60901/IDS60901.94678.axf

JavaScript Object Notation format (JSON) in row-major order
http://www.bom.gov.au/fwo/IDS60901/IDS60901.94678.json